Time;durP1;ratioP1;P1;durP2;ratioP2;P2;SDS_P1;SDS_P2;PMS_P1;PMS_P2;Temp;Humidity;BMP_temperature;BMP_pressure;BME280_temperature;BME280_humidity;BME280_pressure;Samples;Min_cycle;Max_cycle;Signal;HPM_P1;HPM_P2
2022/04/21 00:01:27;;;;;;;;;15.67;14.33;;;;;;;;5103754;27;47258;-75
2022/04/21 00:03:52;;;;;;;;;16.00;15.33;;;;;;;;5122673;27;45292;-74
2022/04/21 00:06:17;;;;;;;;;20.33;17.33;;;;;;;;5122711;27;45346;-75
2022/04/21 00:08:43;;;;;;;;;19.33;18.33;;;;;;;;5122294;27;45667;-75
2022/04/21 00:11:08;;;;;;;;;20.00;17.00;;;;;;;;5103441;27;48038;-75
2022/04/21 00:13:34;;;;;;;;;18.25;16.50;;;;;;;;5122420;27;45300;-75
2022/04/21 00:15:59;;;;;;;;;20.00;18.50;;;;;;;;5122080;27;45229;-75
2022/04/21 00:18:24;;;;;;;;;18.25;17.25;;;;;;;;5122308;27;45220;-75
2022/04/21 00:20:49;;;;;;;;;21.00;21.00;;;;;;;;5103540;27;48182;-75
2022/04/21 00:23:27;;;;;;;;;18.50;18.50;;;;;;;;5122179;27;45290;-74
2022/04/21 00:25:53;;;;;;;;;17.00;16.75;;;;;;;;5103769;27;45298;-75
2022/04/21 00:28:18;;;;;;;;;14.67;14.67;;;;;;;;5122036;27;45519;-75
2022/04/21 00:30:44;;;;;;;;;14.25;14.25;;;;;;;;5103052;27;47010;-74
2022/04/21 00:33:09;;;;;;;;;14.33;14.00;;;;;;;;5122045;27;45315;-74
2022/04/21 00:35:34;;;;;;;;;15.50;15.50;;;;;;;;5122258;27;45551;-74
2022/04/21 00:37:59;;;;;;;;;14.33;14.33;;;;;;;;5103276;27;46088;-74
2022/04/21 00:40:26;;;;;;;;;12.67;12.67;;;;;;;;5121917;27;45342;-75
2022/04/21 00:42:52;;;;;;;;;17.67;16.00;;;;;;;;5122004;27;45231;-75
2022/04/21 00:45:17;;;;;;;;;15.00;15.00;;;;;;;;5121763;27;45207;-75
2022/04/21 00:47:44;;;;;;;;;14.00;14.00;;;;;;;;5103183;27;45668;-74
2022/04/21 00:50:10;;;;;;;;;15.00;14.25;;;;;;;;5121480;27;45224;-75
2022/04/21 00:52:36;;;;;;;;;14.00;13.00;;;;;;;;5121689;27;45310;-75
2022/04/21 00:55:01;;;;;;;;;14.00;13.50;;;;;;;;5103218;27;45316;-74
2022/04/21 00:57:27;;;;;;;;;13.00;13.00;;;;;;;;5121796;27;45341;-74
2022/04/21 00:59:53;;;;;;;;;8.00;8.00;;;;;;;;5121480;27;45344;-75
2022/04/21 01:05:02;;;;;;;;;12.33;11.67;;;;;;;;5121740;27;45239;-74
2022/04/21 01:07:27;;;;;;;;;10.67;10.67;;;;;;;;5102724;27;46159;-75
2022/04/21 01:09:55;;;;;;;;;12.75;12.75;;;;;;;;5121508;27;45399;-74
2022/04/21 01:12:21;;;;;;;;;13.00;13.00;;;;;;;;5121419;27;45153;-75
2022/04/21 01:14:46;;;;;;;;;13.00;11.00;;;;;;;;5119446;27;45155;-74
2022/04/21 01:17:12;;;;;;;;;10.00;9.33;;;;;;;;5100600;27;45347;-74
2022/04/21 01:19:38;;;;;;;;;12.25;12.25;;;;;;;;5100719;27;45235;-75
2022/04/21 01:22:03;;;;;;;;;10.00;10.00;;;;;;;;5100527;27;45597;-75
2022/04/21 01:24:28;;;;;;;;;8.00;8.00;;;;;;;;5100180;27;45232;-75
2022/04/21 01:26:54;;;;;;;;;11.33;11.33;;;;;;;;5100735;27;45504;-74
2022/04/21 01:29:20;;;;;;;;;9.00;9.00;;;;;;;;5100535;27;45281;-74
2022/04/21 01:31:45;;;;;;;;;9.00;9.00;;;;;;;;5100467;27;45302;-75
2022/04/21 01:34:10;;;;;;;;;9.00;9.00;;;;;;;;5082182;27;45225;-74
2022/04/21 01:41:08;;;;;;;;;7.67;7.67;;;;;;;;5082049;27;46044;-74
2022/04/21 01:42:04;;;;;;;;;10.00;10.00;;;;;;;;5100250;27;45346;-74
2022/04/21 01:44:30;;;;;;;;;7.33;7.33;;;;;;;;5100423;27;45202;-74
2022/04/21 01:46:55;;;;;;;;;9.00;9.00;;;;;;;;5100321;27;45417;-74
2022/04/21 01:49:21;;;;;;;;;11.00;11.00;;;;;;;;5082084;27;48154;-74
2022/04/21 01:51:46;;;;;;;;;10.33;10.33;;;;;;;;5114440;27;45238;-74
2022/04/21 01:54:11;;;;;;;;;9.00;9.00;;;;;;;;5121152;27;45274;-75
2022/04/21 01:56:36;;;;;;;;;10.50;10.50;;;;;;;;5120870;27;45239;-74
2022/04/21 01:59:01;;;;;;;;;10.00;10.00;;;;;;;;5120892;27;45520;-74
2022/04/21 02:01:26;;;;;;;;;7.00;6.67;;;;;;;;5120844;27;45335;-75
2022/04/21 02:03:54;;;;;;;;;11.67;11.67;;;;;;;;5120943;27;45241;-75
2022/04/21 02:06:19;;;;;;;;;11.33;11.33;;;;;;;;5102267;27;46312;-74
2022/04/21 02:08:46;;;;;;;;;14.33;13.67;;;;;;;;5120507;27;45555;-75
2022/04/21 02:11:12;;;;;;;;;13.50;13.00;;;;;;;;5120775;27;45217;-74
2022/04/21 02:13:37;;;;;;;;;16.33;13.00;;;;;;;;5120728;27;45577;-74
2022/04/21 02:16:02;;;;;;;;;12.00;12.00;;;;;;;;5101738;27;45781;-74
2022/04/21 02:18:28;;;;;;;;;14.25;14.25;;;;;;;;5102157;27;46977;-75
2022/04/21 02:20:53;;;;;;;;;11.33;11.33;;;;;;;;5120713;27;45211;-74
2022/04/21 02:23:19;;;;;;;;;10.25;10.25;;;;;;;;5120768;27;45647;-75
2022/04/21 02:25:44;;;;;;;;;9.67;9.00;;;;;;;;5102027;27;45929;-74
2022/04/21 02:28:09;;;;;;;;;11.00;11.00;;;;;;;;5120432;27;46119;-75
2022/04/21 02:30:34;;;;;;;;;12.67;12.00;;;;;;;;5120405;27;45203;-74
2022/04/21 02:33:00;;;;;;;;;11.00;11.00;;;;;;;;5120560;27;45194;-74
2022/04/21 02:35:25;;;;;;;;;11.00;10.00;;;;;;;;5123233;27;45304;-75
2022/04/21 02:37:50;;;;;;;;;13.00;11.67;;;;;;;;5123971;27;45588;-74
2022/04/21 02:40:16;;;;;;;;;12.67;11.33;;;;;;;;5124039;27;45390;-75
2022/04/21 02:42:41;;;;;;;;;12.00;10.00;;;;;;;;5124215;27;45428;-74
2022/04/21 02:45:07;;;;;;;;;9.67;9.67;;;;;;;;5123759;27;45306;-74
2022/04/21 02:47:34;;;;;;;;;14.00;12.67;;;;;;;;5123876;27;46735;-74
2022/04/21 02:49:59;;;;;;;;;11.25;11.25;;;;;;;;5123761;27;45305;-74
2022/04/21 02:52:25;;;;;;;;;11.67;11.67;;;;;;;;5105202;27;45306;-74
2022/04/21 02:57:50;;;;;;;;;10.00;10.00;;;;;;;;5039844;28;45906;-74
2022/04/21 03:00:16;;;;;;;;;13.00;13.00;;;;;;;;5071119;27;46116;-74
2022/04/21 03:02:41;;;;;;;;;13.33;11.67;;;;;;;;5084625;27;45320;-74
2022/04/21 03:05:07;;;;;;;;;11.67;11.00;;;;;;;;5102996;27;45545;-74
2022/04/21 03:07:32;;;;;;;;;9.00;8.33;;;;;;;;5102747;27;46047;-75
2022/04/21 03:09:57;;;;;;;;;13.00;13.00;;;;;;;;5102833;27;45380;-74
2022/04/21 03:12:24;;;;;;;;;11.67;10.00;;;;;;;;5102909;27;45293;-74
2022/04/21 03:14:49;;;;;;;;;11.00;11.00;;;;;;;;5102410;27;45318;-75
2022/04/21 03:17:14;;;;;;;;;10.33;10.33;;;;;;;;5102583;27;45389;-75
2022/04/21 03:19:40;;;;;;;;;10.00;10.00;;;;;;;;5102720;27;45301;-74
2022/04/21 03:24:49;;;;;;;;;9.67;9.67;;;;;;;;5102577;27;45302;-75
2022/04/21 03:27:14;;;;;;;;;14.33;12.67;;;;;;;;5102424;27;45214;-75
2022/04/21 03:29:40;;;;;;;;;10.67;10.33;;;;;;;;5102627;27;45204;-75
2022/04/21 03:32:13;;;;;;;;;11.00;11.00;;;;;;;;5083877;27;45354;-75
2022/04/21 03:34:42;;;;;;;;;10.67;10.67;;;;;;;;5102211;27;45531;-74
2022/04/21 03:37:08;;;;;;;;;11.33;11.00;;;;;;;;5102239;27;45232;-75
2022/04/21 03:39:34;;;;;;;;;13.25;13.00;;;;;;;;5083924;27;46099;-74
2022/04/21 03:41:59;;;;;;;;;10.75;10.75;;;;;;;;5102379;27;45211;-74
2022/04/21 03:44:24;;;;;;;;;13.67;12.33;;;;;;;;5102297;27;45614;-74
2022/04/21 03:46:49;;;;;;;;;13.67;13.00;;;;;;;;5101436;27;45422;-74
2022/04/21 03:49:15;;;;;;;;;16.33;14.00;;;;;;;;5083782;27;45275;-75
2022/04/21 03:51:40;;;;;;;;;13.50;12.50;;;;;;;;5095037;27;45437;-74
2022/04/21 03:54:05;;;;;;;;;17.33;14.00;;;;;;;;5122723;27;45522;-74
2022/04/21 03:56:31;;;;;;;;;11.67;11.00;;;;;;;;5122805;27;46269;-74
2022/04/21 03:58:57;;;;;;;;;11.00;11.00;;;;;;;;5122796;27;45368;-74
2022/04/21 04:01:22;;;;;;;;;12.00;10.67;;;;;;;;5122692;27;45315;-74
2022/04/21 04:03:48;;;;;;;;;11.00;11.00;;;;;;;;5122493;27;45495;-75
2022/04/21 04:11:41;;;;;;;;;15.25;14.00;;;;;;;;5122342;27;45440;-75
2022/04/21 04:14:07;;;;;;;;;12.00;12.00;;;;;;;;5122361;27;45242;-74
2022/04/21 04:16:34;;;;;;;;;11.33;11.33;;;;;;;;5121753;27;45617;-74
2022/04/21 04:18:59;;;;;;;;;12.00;11.00;;;;;;;;5122435;27;45313;-75
2022/04/21 04:21:24;;;;;;;;;13.00;13.00;;;;;;;;5103704;27;45308;-74
2022/04/21 04:23:49;;;;;;;;;12.00;12.00;;;;;;;;5122295;27;45290;-74
2022/04/21 04:26:14;;;;;;;;;13.75;13.75;;;;;;;;5122179;27;46206;-75
2022/04/21 04:28:40;;;;;;;;;20.00;17.50;;;;;;;;5122201;27;45277;-74
2022/04/21 04:31:05;;;;;;;;;12.50;11.25;;;;;;;;5122057;27;45228;-74
2022/04/21 04:33:30;;;;;;;;;17.00;15.50;;;;;;;;5122086;27;45275;-74
2022/04/21 04:35:55;;;;;;;;;15.50;15.50;;;;;;;;5122045;27;45271;-74
2022/04/21 04:38:20;;;;;;;;;12.00;12.00;;;;;;;;5122018;27;45303;-74
2022/04/21 04:40:46;;;;;;;;;16.75;14.25;;;;;;;;5122182;27;45215;-74
2022/04/21 04:43:11;;;;;;;;;15.00;14.00;;;;;;;;5122268;27;45623;-74
2022/04/21 04:48:20;;;;;;;;;16.00;14.00;;;;;;;;5122151;27;45310;-75
2022/04/21 04:50:46;;;;;;;;;12.50;12.50;;;;;;;;5121738;27;45341;-75
2022/04/21 04:53:11;;;;;;;;;18.50;17.00;;;;;;;;5121815;27;45221;-75
2022/04/21 04:55:37;;;;;;;;;21.25;19.75;;;;;;;;5103117;27;47340;-75
2022/04/21 04:58:02;;;;;;;;;15.75;13.00;;;;;;;;5120773;27;45374;-76
2022/04/21 05:00:29;;;;;;;;;7.75;7.75;;;;;;;;5103223;27;45290;-75
2022/04/21 05:02:54;;;;;;;;;13.00;12.50;;;;;;;;5121635;27;45428;-75
2022/04/21 05:05:20;;;;;;;;;14.50;14.50;;;;;;;;5089374;27;47251;-76
2022/04/21 05:07:45;;;;;;;;;20.00;17.00;;;;;;;;5092333;27;45503;-75
2022/04/21 05:10:10;;;;;;;;;13.33;13.33;;;;;;;;5101069;27;45570;-75
2022/04/21 05:12:35;;;;;;;;;11.00;11.00;;;;;;;;5100978;27;45439;-75
2022/04/21 05:15:00;;;;;;;;;18.75;18.75;;;;;;;;5085982;27;48426;-75
2022/04/21 05:17:26;;;;;;;;;14.25;13.25;;;;;;;;5121481;27;45339;-77
2022/04/21 05:19:52;;;;;;;;;12.25;12.25;;;;;;;;5102989;27;45266;-77
2022/04/21 05:22:18;;;;;;;;;11.33;11.33;;;;;;;;5121306;27;45328;-76
2022/04/21 05:24:46;;;;;;;;;21.00;17.75;;;;;;;;5121277;27;46035;-76
2022/04/21 05:27:12;;;;;;;;;20.00;18.75;;;;;;;;5102956;27;45785;-76
2022/04/21 05:32:25;;;;;;;;;17.00;14.00;;;;;;;;5121147;27;45231;-75
2022/04/21 05:34:50;;;;;;;;;14.25;14.25;;;;;;;;5084727;27;47495;-76
2022/04/21 05:37:16;;;;;;;;;16.00;15.00;;;;;;;;5099332;27;45492;-75
2022/04/21 05:39:41;;;;;;;;;23.00;22.25;;;;;;;;5100710;27;45194;-75
2022/04/21 05:42:09;;;;;;;;;22.00;21.50;;;;;;;;5082040;27;47568;-76
2022/04/21 05:44:35;;;;;;;;;21.25;17.75;;;;;;;;5100129;27;46310;-75
2022/04/21 05:47:00;;;;;;;;;21.75;20.50;;;;;;;;5096719;27;45325;-75
2022/04/21 05:49:26;;;;;;;;;23.75;21.00;;;;;;;;5100532;27;45227;-75
2022/04/21 05:51:55;;;;;;;;;46.25;39.00;;;;;;;;5113188;27;45247;-75
2022/04/21 05:54:20;;;;;;;;;17.25;16.25;;;;;;;;5120592;27;46411;-75
2022/04/21 05:56:45;;;;;;;;;31.75;30.50;;;;;;;;5120825;27;45193;-75
2022/04/21 05:59:11;;;;;;;;;21.50;21.00;;;;;;;;5104356;27;45290;-77
2022/04/21 06:01:36;;;;;;;;;58.00;46.00;;;;;;;;5123041;27;45364;-77
2022/04/21 06:04:01;;;;;;;;;55.75;45.00;;;;;;;;5104087;27;47029;-77
2022/04/21 06:06:26;;;;;;;;;80.50;70.00;;;;;;;;5121178;27;45293;-76
2022/04/21 06:08:52;;;;;;;;;132.67;111.67;;;;;;;;5121251;27;45585;-74
2022/04/21 06:11:17;;;;;;;;;89.50;72.00;;;;;;;;5124396;27;45387;-74
2022/04/21 06:13:42;;;;;;;;;122.67;109.33;;;;;;;;5124294;27;45291;-74
2022/04/21 06:16:08;;;;;;;;;60.00;47.25;;;;;;;;5105303;27;45299;-74
2022/04/21 06:18:35;;;;;;;;;55.50;43.25;;;;;;;;5124535;27;45470;-74
2022/04/21 06:21:00;;;;;;;;;41.50;35.00;;;;;;;;5105335;27;46179;-74
2022/04/21 06:23:26;;;;;;;;;40.25;33.00;;;;;;;;5105473;27;47449;-74
2022/04/21 06:25:56;;;;;;;;;35.50;30.75;;;;;;;;5124220;27;45287;-74
2022/04/21 06:28:22;;;;;;;;;64.50;52.00;;;;;;;;5105741;27;45254;-74
2022/04/21 06:30:47;;;;;;;;;75.75;58.75;;;;;;;;5123742;27;45573;-75
2022/04/21 06:33:12;;;;;;;;;114.50;99.00;;;;;;;;5123107;27;45431;-75
2022/04/21 06:35:37;;;;;;;;;57.75;46.50;;;;;;;;5124103;27;45388;-74
2022/04/21 06:38:03;;;;;;;;;29.50;26.25;;;;;;;;5104429;27;45239;-75
2022/04/21 06:40:28;;;;;;;;;62.00;48.50;;;;;;;;5143857;27;45243;-74
2022/04/21 06:42:53;;;;;;;;;63.25;50.00;;;;;;;;5125859;27;47187;-74
2022/04/21 06:48:02;;;;;;;;;109.75;96.25;;;;;;;;5144069;27;45305;-75
2022/04/21 06:50:31;;;;;;;;;52.75;43.50;;;;;;;;5143773;27;45748;-75
2022/04/21 06:52:56;;;;;;;;;89.00;79.00;;;;;;;;5144167;27;45539;-76
2022/04/21 06:55:22;;;;;;;;;78.00;65.50;;;;;;;;5144087;27;45218;-75
2022/04/21 06:57:47;;;;;;;;;64.00;50.50;;;;;;;;5125355;27;45211;-76
2022/04/21 07:00:13;;;;;;;;;53.25;42.25;;;;;;;;5142445;27;45353;-75
2022/04/21 07:02:38;;;;;;;;;61.50;49.25;;;;;;;;5143514;27;46279;-75
2022/04/21 07:05:23;;;;;;;;;33.00;29.50;;;;;;;;5141809;27;45323;-75
2022/04/21 07:07:49;;;;;;;;;54.75;44.00;;;;;;;;5142879;27;45278;-75
2022/04/21 07:10:15;;;;;;;;;54.75;43.25;;;;;;;;5143213;27;45537;-75
2022/04/21 07:12:40;;;;;;;;;39.50;32.00;;;;;;;;5143301;27;46065;-76
2022/04/21 07:15:07;;;;;;;;;71.75;55.50;;;;;;;;5138524;27;45474;-75
2022/04/21 07:17:33;;;;;;;;;51.25;40.00;;;;;;;;5123214;27;45324;-76
2022/04/21 07:20:02;;;;;;;;;67.50;53.50;;;;;;;;5123018;27;45308;-76
2022/04/21 07:22:28;;;;;;;;;64.00;49.25;;;;;;;;5122281;27;45297;-75
2022/04/21 07:24:54;;;;;;;;;73.50;60.25;;;;;;;;5123107;27;45259;-75
2022/04/21 07:27:19;;;;;;;;;63.00;48.00;;;;;;;;5123361;27;45498;-75
2022/04/21 07:29:45;;;;;;;;;88.75;74.00;;;;;;;;5104176;27;47071;-75
2022/04/21 07:32:10;;;;;;;;;59.50;48.00;;;;;;;;5122864;27;46085;-75
2022/04/21 07:34:36;;;;;;;;;56.25;44.50;;;;;;;;5104352;27;45316;-75
2022/04/21 07:37:01;;;;;;;;;21.00;20.00;;;;;;;;5123054;27;45360;-75
2022/04/21 07:39:26;;;;;;;;;33.00;30.00;;;;;;;;5123048;27;45446;-76
2022/04/21 07:41:52;;;;;;;;;67.50;53.25;;;;;;;;5104144;27;47205;-75
2022/04/21 07:44:17;;;;;;;;;17.67;17.00;;;;;;;;5104505;27;45314;-76
2022/04/21 07:46:42;;;;;;;;;47.00;37.50;;;;;;;;5122977;27;45282;-75
2022/04/21 07:53:12;;;;;;;;;45.75;36.00;;;;;;;;5122261;27;45492;-76
2022/04/21 07:54:38;;;;;;;;;54.75;43.25;;;;;;;;5122442;27;45285;-77
2022/04/21 07:57:03;;;;;;;;;140.67;114.33;;;;;;;;5104218;27;45251;-76
2022/04/21 07:59:28;;;;;;;;;47.25;38.50;;;;;;;;5122437;27;46267;-76
2022/04/21 08:01:53;;;;;;;;;124.33;110.67;;;;;;;;5122612;27;45488;-74
2022/04/21 08:04:19;;;;;;;;;24.75;23.00;;;;;;;;5122574;27;45254;-75
2022/04/21 08:06:44;;;;;;;;;26.00;25.00;;;;;;;;5103770;27;45276;-76
2022/04/21 08:09:09;;;;;;;;;54.75;43.50;;;;;;;;5121774;27;45286;-75
2022/04/21 08:11:34;;;;;;;;;48.00;38.50;;;;;;;;5120469;27;45348;-75
2022/04/21 08:14:00;;;;;;;;;46.00;38.50;;;;;;;;5120676;27;45231;-75
2022/04/21 08:16:25;;;;;;;;;31.00;26.75;;;;;;;;5120501;27;45271;-75
2022/04/21 08:18:52;;;;;;;;;21.67;20.67;;;;;;;;5120764;27;45235;-75
2022/04/21 08:21:18;;;;;;;;;23.00;20.00;;;;;;;;5119611;27;46519;-78
2022/04/21 08:23:44;;;;;;;;;58.00;45.75;;;;;;;;5116149;27;45454;-75
2022/04/21 08:34:22;;;;;;;;;60.00;49.00;;;;;;;;5119130;27;45378;-75
2022/04/21 08:36:47;;;;;;;;;78.25;65.50;;;;;;;;5110266;27;45445;-74
2022/04/21 08:39:13;;;;;;;;;66.25;55.75;;;;;;;;5118276;27;45514;-75
2022/04/21 08:41:41;;;;;;;;;72.00;60.00;;;;;;;;5096083;27;46877;-76
2022/04/21 08:44:06;;;;;;;;;21.00;19.00;;;;;;;;5114667;27;45500;-75
2022/04/21 08:46:32;;;;;;;;;18.33;18.33;;;;;;;;5112577;27;45396;-78
2022/04/21 08:49:00;;;;;;;;;56.50;45.50;;;;;;;;5115884;27;45393;-76
2022/04/21 08:51:25;;;;;;;;;16.67;16.67;;;;;;;;5122870;27;45323;-75
2022/04/21 08:53:50;;;;;;;;;34.50;30.25;;;;;;;;5107656;27;45346;-75
2022/04/21 08:56:16;;;;;;;;;32.75;29.25;;;;;;;;5090991;27;45512;-77
2022/04/21 08:58:41;;;;;;;;;48.00;39.25;;;;;;;;5106310;27;45478;-77
2022/04/21 09:01:07;;;;;;;;;20.00;18.67;;;;;;;;5082738;27;48381;-79
2022/04/21 09:03:35;;;;;;;;;86.00;77.50;;;;;;;;5112187;27;45386;-76
2022/04/21 09:06:00;;;;;;;;;27.75;26.50;;;;;;;;5109911;27;45279;-76
2022/04/21 09:08:31;;;;;;;;;45.75;38.25;;;;;;;;5110529;27;45291;-77
2022/04/21 09:11:04;;;;;;;;;19.67;18.00;;;;;;;;5117586;27;46207;-77
2022/04/21 09:13:39;;;;;;;;;20.33;19.33;;;;;;;;5121731;27;45363;-76
2022/04/21 09:16:08;;;;;;;;;18.67;17.67;;;;;;;;5119529;27;45561;-76
2022/04/21 09:18:41;;;;;;;;;49.00;38.50;;;;;;;;5121118;27;45571;-76
2022/04/21 09:21:07;;;;;;;;;62.50;49.75;;;;;;;;5119972;27;46289;-76
2022/04/21 09:23:33;;;;;;;;;58.75;47.00;;;;;;;;5110562;27;45422;-76
2022/04/21 09:26:05;;;;;;;;;15.33;15.33;;;;;;;;5090218;27;45450;-76
2022/04/21 09:28:30;;;;;;;;;21.00;19.33;;;;;;;;5109564;27;45290;-75
2022/04/21 09:30:57;;;;;;;;;41.00;33.75;;;;;;;;5096111;27;47255;-77
2022/04/21 09:33:32;;;;;;;;;47.75;39.25;;;;;;;;5120521;27;45423;-76
2022/04/21 09:35:58;;;;;;;;;41.25;34.00;;;;;;;;5102369;27;45438;-77
2022/04/21 09:38:23;;;;;;;;;34.75;29.75;;;;;;;;5108126;27;45337;-76
2022/04/21 09:40:49;;;;;;;;;40.75;33.50;;;;;;;;5120829;27;46545;-76
2022/04/21 09:43:24;;;;;;;;;61.75;47.75;;;;;;;;5102768;27;45279;-76
2022/04/21 09:46:07;;;;;;;;;36.00;31.00;;;;;;;;5120395;27;45292;-78
2022/04/21 09:48:33;;;;;;;;;49.50;40.75;;;;;;;;5121150;27;45492;-79
2022/04/21 09:51:14;;;;;;;;;78.00;70.50;;;;;;;;5103976;27;47183;-77
2022/04/21 09:53:50;;;;;;;;;82.00;76.00;;;;;;;;5128225;27;45236;-77
2022/04/21 09:56:16;;;;;;;;;43.75;36.00;;;;;;;;5124349;27;45301;-78
2022/04/21 09:58:42;;;;;;;;;25.33;23.33;;;;;;;;5105530;27;46371;-77
2022/04/21 10:01:08;;;;;;;;;17.00;17.00;;;;;;;;5122507;27;46081;-77
2022/04/21 10:03:34;;;;;;;;;22.33;22.33;;;;;;;;5122253;27;45376;-78
2022/04/21 10:06:00;;;;;;;;;50.00;40.75;;;;;;;;5126987;27;45327;-79
2022/04/21 10:08:25;;;;;;;;;41.25;35.25;;;;;;;;5124389;27;45172;-77
2022/04/21 10:10:52;;;;;;;;;26.33;23.67;;;;;;;;5121664;27;46065;-78
2022/04/21 10:13:18;;;;;;;;;78.25;69.25;;;;;;;;5097822;27;45335;-76
2022/04/21 10:15:43;;;;;;;;;16.33;15.67;;;;;;;;5109623;27;45380;-76
2022/04/21 10:18:11;;;;;;;;;26.67;25.67;;;;;;;;5102113;27;45927;-76
2022/04/21 10:20:37;;;;;;;;;41.00;31.33;;;;;;;;5123436;27;46772;-78
2022/04/21 10:23:03;;;;;;;;;61.25;48.00;;;;;;;;5103099;27;45242;-77
2022/04/21 10:25:35;;;;;;;;;27.33;26.00;;;;;;;;5121657;27;45230;-77
2022/04/21 10:28:00;;;;;;;;;38.00;33.50;;;;;;;;5102714;27;45322;-77
2022/04/21 10:30:26;;;;;;;;;45.75;39.00;;;;;;;;5102478;27;46411;-77
2022/04/21 10:32:56;;;;;;;;;46.00;39.25;;;;;;;;5099627;27;45235;-78
2022/04/21 10:35:24;;;;;;;;;29.33;27.33;;;;;;;;5100382;27;45603;-78
2022/04/21 10:38:08;;;;;;;;;32.67;30.67;;;;;;;;5100236;27;45553;-75
2022/04/21 10:40:33;;;;;;;;;52.00;39.75;;;;;;;;5083113;27;47065;-78
2022/04/21 10:42:58;;;;;;;;;26.67;25.33;;;;;;;;5102137;27;45321;-78
2022/04/21 10:45:27;;;;;;;;;63.00;49.75;;;;;;;;5103149;27;45374;-78
2022/04/21 10:48:14;;;;;;;;;52.50;42.50;;;;;;;;5106701;27;45274;-78
2022/04/21 10:50:40;;;;;;;;;50.33;41.00;;;;;;;;5090995;27;47434;-77
2022/04/21 10:58:36;;;;;;;;;22.33;21.33;;;;;;;;5145330;27;45302;-78
2022/04/21 11:01:16;;;;;;;;;34.00;29.33;;;;;;;;5133691;27;45808;-78
2022/04/21 11:03:42;;;;;;;;;76.00;65.00;;;;;;;;5100828;27;45494;-77
2022/04/21 11:06:12;;;;;;;;;38.00;32.67;;;;;;;;5084091;27;45469;-76
2022/04/21 11:08:37;;;;;;;;;58.25;45.25;;;;;;;;5101349;27;46019;-76
2022/04/21 11:11:03;;;;;;;;;47.75;38.50;;;;;;;;5122764;27;45354;-77
2022/04/21 11:13:47;;;;;;;;;52.75;40.00;;;;;;;;5110945;27;45780;-78
2022/04/21 11:16:32;;;;;;;;;14.33;14.00;;;;;;;;5122789;27;45525;-77
2022/04/21 11:19:16;;;;;;;;;12.33;12.00;;;;;;;;5104198;27;46038;-78
2022/04/21 11:21:51;;;;;;;;;12.00;12.00;;;;;;;;5102615;27;45355;-77
2022/04/21 11:24:17;;;;;;;;;16.33;16.33;;;;;;;;5105299;27;45386;-79
2022/04/21 11:26:43;;;;;;;;;12.00;12.00;;;;;;;;5114660;27;45424;-78
2022/04/21 11:29:08;;;;;;;;;13.33;13.33;;;;;;;;5102674;27;46312;-79
2022/04/21 11:31:33;;;;;;;;;17.67;15.00;;;;;;;;5121680;27;46047;-79
2022/04/21 11:34:00;;;;;;;;;10.67;10.67;;;;;;;;5121599;27;45439;-76
2022/04/21 11:36:33;;;;;;;;;14.67;13.67;;;;;;;;5112270;27;45489;-77
2022/04/21 11:38:58;;;;;;;;;17.33;17.33;;;;;;;;5111006;27;45428;-76
2022/04/21 11:41:23;;;;;;;;;25.67;23.67;;;;;;;;5110630;27;45513;-75
2022/04/21 11:43:49;;;;;;;;;13.00;12.67;;;;;;;;5106206;27;45283;-77
2022/04/21 11:46:15;;;;;;;;;12.00;12.00;;;;;;;;5109212;27;45436;-76
2022/04/21 11:48:41;;;;;;;;;16.33;15.67;;;;;;;;5111887;27;45435;-78
2022/04/21 11:51:08;;;;;;;;;34.67;28.67;;;;;;;;5112098;27;45703;-77
2022/04/21 11:53:36;;;;;;;;;19.67;17.00;;;;;;;;5122165;27;45317;-77
2022/04/21 11:56:02;;;;;;;;;11.67;9.00;;;;;;;;5101514;27;45657;-77
2022/04/21 11:58:34;;;;;;;;;11.00;11.00;;;;;;;;5120557;27;45540;-77
2022/04/21 12:06:38;;;;;;;;;10.33;10.33;;;;;;;;5120150;27;45775;-76
2022/04/21 12:09:04;;;;;;;;;12.33;12.00;;;;;;;;5119872;27;45355;-77
2022/04/21 12:11:30;;;;;;;;;54.75;43.50;;;;;;;;5120420;27;45624;-77
2022/04/21 12:13:56;;;;;;;;;14.67;14.67;;;;;;;;5120708;27;45536;-77
2022/04/21 12:16:40;;;;;;;;;18.67;16.67;;;;;;;;5102871;27;45250;-77
2022/04/21 12:19:08;;;;;;;;;43.33;36.00;;;;;;;;5121722;27;45290;-76
2022/04/21 12:21:37;;;;;;;;;47.00;39.00;;;;;;;;5115500;27;45470;-77
2022/04/21 12:24:12;;;;;;;;;17.67;17.67;;;;;;;;5103678;27;45336;-77
2022/04/21 12:26:37;;;;;;;;;10.33;9.67;;;;;;;;5097672;27;45279;-77
2022/04/21 12:29:07;;;;;;;;;13.00;11.33;;;;;;;;5103475;27;45894;-77
2022/04/21 12:31:42;;;;;;;;;14.67;13.67;;;;;;;;5103548;27;48108;-78
2022/04/21 12:34:08;;;;;;;;;8.33;8.33;;;;;;;;5122266;27;45486;-79
2022/04/21 12:36:34;;;;;;;;;10.67;10.33;;;;;;;;5122612;27;45317;-77
2022/04/21 12:39:02;;;;;;;;;28.00;25.00;;;;;;;;5095565;27;46049;-78
2022/04/21 12:41:28;;;;;;;;;13.00;12.67;;;;;;;;5097894;27;48511;-78
2022/04/21 12:43:53;;;;;;;;;12.67;12.67;;;;;;;;5121692;27;45406;-78
2022/04/21 12:46:19;;;;;;;;;26.00;23.00;;;;;;;;5121819;27;45153;-77
2022/04/21 12:48:48;;;;;;;;;12.00;11.67;;;;;;;;5121759;27;45338;-78
2022/04/21 12:51:19;;;;;;;;;13.00;13.00;;;;;;;;5102141;27;47120;-78
2022/04/21 12:53:44;;;;;;;;;14.00;13.67;;;;;;;;5120195;27;45459;-79
2022/04/21 12:56:11;;;;;;;;;30.67;28.67;;;;;;;;5121509;27;45374;-79
2022/04/21 12:58:36;;;;;;;;;36.00;29.00;;;;;;;;5102768;27;46112;-76
2022/04/21 13:01:02;;;;;;;;;13.00;13.00;;;;;;;;5121439;27;47084;-77
2022/04/21 13:03:28;;;;;;;;;18.67;16.67;;;;;;;;5122163;27;45400;-77
2022/04/21 13:05:55;;;;;;;;;20.67;19.33;;;;;;;;5121132;27;45333;-77
2022/04/21 13:08:28;;;;;;;;;21.67;20.00;;;;;;;;5102046;27;47430;-77
2022/04/21 13:10:55;;;;;;;;;16.33;13.67;;;;;;;;5121013;27;45455;-77
2022/04/21 13:13:20;;;;;;;;;15.00;15.00;;;;;;;;5121061;27;45654;-78
2022/04/21 13:15:46;;;;;;;;;13.00;12.67;;;;;;;;5101938;27;45473;-77
2022/04/21 13:18:11;;;;;;;;;14.00;13.00;;;;;;;;5118469;27;45477;-78
2022/04/21 13:23:24;;;;;;;;;13.00;13.00;;;;;;;;5114091;27;45444;-78
2022/04/21 13:25:49;;;;;;;;;11.67;11.67;;;;;;;;5140822;27;45345;-77
2022/04/21 13:28:14;;;;;;;;;13.67;13.00;;;;;;;;5141216;27;45383;-77
2022/04/21 13:30:39;;;;;;;;;23.33;22.00;;;;;;;;5103814;27;47417;-79
2022/04/21 13:33:23;;;;;;;;;10.00;9.00;;;;;;;;5117689;27;45426;-76
2022/04/21 13:35:52;;;;;;;;;14.00;11.33;;;;;;;;5120305;27;45540;-76
2022/04/21 13:38:17;;;;;;;;;13.67;12.67;;;;;;;;5105579;27;45761;-77
2022/04/21 13:40:43;;;;;;;;;15.33;14.33;;;;;;;;5091309;27;46904;-77
2022/04/21 13:43:08;;;;;;;;;18.00;17.67;;;;;;;;5107071;27;45390;-77
2022/04/21 13:45:37;;;;;;;;;10.00;10.00;;;;;;;;5120747;27;45491;-77
2022/04/21 13:48:04;;;;;;;;;11.00;11.00;;;;;;;;5120058;27;45502;-78
2022/04/21 13:50:29;;;;;;;;;27.67;26.67;;;;;;;;5119944;27;45642;-77
2022/04/21 13:52:55;;;;;;;;;11.00;9.67;;;;;;;;5120023;27;45253;-78
2022/04/21 13:55:20;;;;;;;;;10.67;9.00;;;;;;;;5119133;27;45191;-78
2022/04/21 13:57:46;;;;;;;;;11.33;11.33;;;;;;;;5101819;27;45293;-79
2022/04/21 14:00:11;;;;;;;;;35.00;30.33;;;;;;;;5101464;27;47222;-77
2022/04/21 14:02:36;;;;;;;;;24.67;24.00;;;;;;;;5120813;27;45479;-77
2022/04/21 14:05:02;;;;;;;;;24.33;24.00;;;;;;;;5120642;27;45481;-77
2022/04/21 14:07:27;;;;;;;;;9.67;9.67;;;;;;;;5120164;27;45416;-77
2022/04/21 14:09:52;;;;;;;;;8.00;8.00;;;;;;;;5101990;27;47381;-77
2022/04/21 14:12:20;;;;;;;;;35.00;29.67;;;;;;;;5120638;27;45414;-77
2022/04/21 14:14:46;;;;;;;;;26.00;23.33;;;;;;;;5101717;27;45272;-78
2022/04/21 14:17:11;;;;;;;;;46.50;39.75;;;;;;;;5119769;27;45601;-76
2022/04/21 14:19:37;;;;;;;;;25.00;24.33;;;;;;;;5120123;27;46033;-78
2022/04/21 14:22:02;;;;;;;;;8.67;8.67;;;;;;;;5118883;27;45323;-77
2022/04/21 14:24:27;;;;;;;;;13.33;11.33;;;;;;;;5120256;27;45215;-77
2022/04/21 14:26:54;;;;;;;;;8.33;8.33;;;;;;;;5122193;27;45156;-76
2022/04/21 14:29:19;;;;;;;;;5.33;5.33;;;;;;;;5119886;27;46106;-77
2022/04/21 14:31:44;;;;;;;;;6.00;6.00;;;;;;;;5122045;27;45148;-77
2022/04/21 14:34:10;;;;;;;;;59.25;46.75;;;;;;;;5103263;27;45511;-76
2022/04/21 14:36:35;;;;;;;;;35.00;31.00;;;;;;;;5084615;27;46839;-76
2022/04/21 14:44:28;;;;;;;;;31.00;28.00;;;;;;;;5122514;27;45180;-77
2022/04/21 14:46:54;;;;;;;;;10.00;9.00;;;;;;;;5122928;27;45400;-76
2022/04/21 14:49:19;;;;;;;;;50.50;39.25;;;;;;;;5112083;27;48260;-76
2022/04/21 14:51:44;;;;;;;;;8.33;6.00;;;;;;;;5143713;27;45289;-78
2022/04/21 14:54:10;;;;;;;;;6.00;6.00;;;;;;;;5144298;27;45462;-77
2022/04/21 14:56:41;;;;;;;;;5.33;5.33;;;;;;;;5110766;27;46356;-78
2022/04/21 14:59:06;;;;;;;;;14.00;14.00;;;;;;;;5118126;27;45576;-77
2022/04/21 15:01:31;;;;;;;;;9.00;7.00;;;;;;;;5113952;27;45838;-74
2022/04/21 15:03:57;;;;;;;;;57.50;45.50;;;;;;;;5124190;27;45398;-74
2022/04/21 15:06:22;;;;;;;;;7.33;6.33;;;;;;;;5101015;27;47226;-73
2022/04/21 15:08:47;;;;;;;;;4.33;4.33;;;;;;;;5112159;27;45449;-73
2022/04/21 15:11:12;;;;;;;;;10.00;8.67;;;;;;;;5135899;27;45282;-73